Terminal Aerodrome Forecast
Issued by NWS Portland, ME

Home | Current Version | Previous Version | Text Only | Print | Product List | Glossary On
Versions: 1 2 3 4 5 6 7 8 9 10 11 12 13 14 15 16 17 18 19 20 21 22 23 24 25 26
766
FTUS41 KGYX 300520
TAFCON
TAF
KCON 300520Z 3006/0106 32010KT P6SM FEW250
     FM301500 01005KT P6SM SCT250
     FM301600 14004KT P6SM BKN050=

USA.gov is the U.S. government's official web portal to all federal, state and local government web resources and services.